sensor_id;sensor_type;location;lat;lon;timestamp;pressure;altitude;pressure_sealevel;temperature;humidity
70304;BME280;57712;48.752;11.348;2023-03-19T00:00:27;97219.81;;;7.02;100.00
70304;BME280;57712;48.752;11.348;2023-03-19T00:02:54;97212.47;;;6.95;100.00
70304;BME280;57712;48.752;11.348;2023-03-19T00:05:21;97219.09;;;6.94;100.00
70304;BME280;57712;48.752;11.348;2023-03-19T00:07:48;97219.47;;;6.97;100.00
70304;BME280;57712;48.752;11.348;2023-03-19T00:10:14;97221.09;;;6.90;100.00
70304;BME280;57712;48.752;11.348;2023-03-19T00:12:41;97222.63;;;6.91;100.00
70304;BME280;57712;48.752;11.348;2023-03-19T00:15:08;97214.09;;;6.89;100.00
70304;BME280;57712;48.752;11.348;2023-03-19T00:17:41;97223.44;;;6.88;100.00
70304;BME280;57712;48.752;11.348;2023-03-19T00:20:09;97213.28;;;6.92;100.00
70304;BME280;57712;48.752;11.348;2023-03-19T00:22:37;97216.09;;;6.82;100.00
70304;BME280;57712;48.752;11.348;2023-03-19T00:25:03;97213.34;;;6.85;100.00
70304;BME280;57712;48.752;11.348;2023-03-19T00:27:30;97216.06;;;6.85;100.00
70304;BME280;57712;48.752;11.348;2023-03-19T00:29:57;97218.84;;;6.78;100.00
70304;BME280;57712;48.752;11.348;2023-03-19T00:32:23;97219.59;;;6.82;100.00
70304;BME280;57712;48.752;11.348;2023-03-19T00:34:50;97217.31;;;6.74;100.00
70304;BME280;57712;48.752;11.348;2023-03-19T00:37:17;97212.22;;;6.79;100.00
70304;BME280;57712;48.752;11.348;2023-03-19T00:39:44;97218.09;;;6.74;100.00
70304;BME280;57712;48.752;11.348;2023-03-19T00:42:10;97221.22;;;6.73;100.00
70304;BME280;57712;48.752;11.348;2023-03-19T00:44:37;97223.19;;;6.65;100.00
70304;BME280;57712;48.752;11.348;2023-03-19T00:47:04;97224.38;;;6.68;100.00
70304;BME280;57712;48.752;11.348;2023-03-19T00:49:32;97228.25;;;6.66;100.00
70304;BME280;57712;48.752;11.348;2023-03-19T00:51:58;97230.59;;;6.64;100.00
70304;BME280;57712;48.752;11.348;2023-03-19T00:54:25;97225.16;;;6.64;100.00
70304;BME280;57712;48.752;11.348;2023-03-19T00:56:51;97221.28;;;6.62;100.00
70304;BME280;57712;48.752;11.348;2023-03-19T00:59:18;97218.22;;;6.53;100.00
70304;BME280;57712;48.752;11.348;2023-03-19T01:01:44;97220.91;;;6.56;100.00
70304;BME280;57712;48.752;11.348;2023-03-19T01:04:11;97231.06;;;6.52;100.00
70304;BME280;57712;48.752;11.348;2023-03-19T01:06:38;97218.28;;;6.46;100.00
70304;BME280;57712;48.752;11.348;2023-03-19T01:09:04;97217.88;;;6.51;100.00
70304;BME280;57712;48.752;11.348;2023-03-19T01:11:31;97218.63;;;6.51;100.00
70304;BME280;57712;48.752;11.348;2023-03-19T01:13:58;97212.81;;;6.49;100.00
70304;BME280;57712;48.752;11.348;2023-03-19T01:16:24;97216.72;;;6.48;100.00
70304;BME280;57712;48.752;11.348;2023-03-19T01:18:52;97215.97;;;6.41;100.00
70304;BME280;57712;48.752;11.348;2023-03-19T01:21:19;97209.00;;;6.40;100.00
70304;BME280;57712;48.752;11.348;2023-03-19T01:23:47;97208.59;;;6.41;100.00
70304;BME280;57712;48.752;11.348;2023-03-19T01:26:13;97208.59;;;6.41;100.00
70304;BME280;57712;48.752;11.348;2023-03-19T01:28:40;97211.31;;;6.41;100.00
70304;BME280;57712;48.752;11.348;2023-03-19T01:31:07;97226.06;;;6.44;100.00
70304;BME280;57712;48.752;11.348;2023-03-19T01:33:34;97212.88;;;6.39;100.00
70304;BME280;57712;48.752;11.348;2023-03-19T01:36:04;97210.91;;;6.43;100.00
70304;BME280;57712;48.752;11.348;2023-03-19T01:38:31;97218.72;;;6.37;100.00
70304;BME280;57712;48.752;11.348;2023-03-19T01:40:58;97219.88;;;6.40;100.00
70304;BME280;57712;48.752;11.348;2023-03-19T01:43:27;97223.78;;;6.39;100.00
70304;BME280;57712;48.752;11.348;2023-03-19T01:45:56;97228.44;;;6.34;100.00
70304;BME280;57712;48.752;11.348;2023-03-19T01:48:28;97228.81;;;6.40;100.00
70304;BME280;57712;48.752;11.348;2023-03-19T01:50:57;97229.97;;;6.43;100.00
70304;BME280;57712;48.752;11.348;2023-03-19T01:53:27;97228.41;;;6.42;100.00
70304;BME280;57712;48.752;11.348;2023-03-19T01:55:59;97232.31;;;6.41;100.00
70304;BME280;57712;48.752;11.348;2023-03-19T01:58:28;97234.28;;;6.36;100.00
70304;BME280;57712;48.752;11.348;2023-03-19T02:00:55;97227.69;;;6.30;100.00
70304;BME280;57712;48.752;11.348;2023-03-19T02:03:23;97231.97;;;6.31;100.00
70304;BME280;57712;48.752;11.348;2023-03-19T02:05:50;97227.31;;;6.28;100.00
70304;BME280;57712;48.752;11.348;2023-03-19T02:08:19;97228.56;;;6.17;100.00
70304;BME280;57712;48.752;11.348;2023-03-19T02:10:49;97231.31;;;6.06;100.00
70304;BME280;57712;48.752;11.348;2023-03-19T02:13:16;97227.78;;;6.13;100.00
70304;BME280;57712;48.752;11.348;2023-03-19T02:15:43;97227.81;;;6.09;100.00
70304;BME280;57712;48.752;11.348;2023-03-19T02:18:10;97237.94;;;6.05;100.00
70304;BME280;57712;48.752;11.348;2023-03-19T02:20:43;97229.41;;;5.89;100.00
70304;BME280;57712;48.752;11.348;2023-03-19T02:26:07;97240.28;;;5.99;100.00
70304;BME280;57712;48.752;11.348;2023-03-19T02:28:36;97233.31;;;5.80;100.00
70304;BME280;57712;48.752;11.348;2023-03-19T02:31:05;97247.28;;;5.86;100.00
70304;BME280;57712;48.752;11.348;2023-03-19T02:33:32;97239.53;;;5.92;100.00
70304;BME280;57712;48.752;11.348;2023-03-19T02:36:01;97234.47;;;5.83;100.00
70304;BME280;57712;48.752;11.348;2023-03-19T02:38:32;97241.47;;;5.91;100.00
70304;BME280;57712;48.752;11.348;2023-03-19T02:41:05;97250.00;;;5.90;100.00
70304;BME280;57712;48.752;11.348;2023-03-19T02:43:34;97246.50;;;5.96;100.00
70304;BME280;57712;48.752;11.348;2023-03-19T02:46:08;97250.41;;;5.92;100.00
70304;BME280;57712;48.752;11.348;2023-03-19T02:48:36;97243.41;;;5.87;100.00
70304;BME280;57712;48.752;11.348;2023-03-19T02:51:04;97248.81;;;5.98;100.00
70304;BME280;57712;48.752;11.348;2023-03-19T02:53:31;97258.16;;;5.97;100.00
70304;BME280;57712;48.752;11.348;2023-03-19T02:55:57;97253.09;;;5.92;100.00
70304;BME280;57712;48.752;11.348;2023-03-19T02:58:24;97251.94;;;5.89;100.00
70304;BME280;57712;48.752;11.348;2023-03-19T03:00:50;97266.69;;;5.92;100.00
70304;BME280;57712;48.752;11.348;2023-03-19T03:03:18;97258.53;;;5.99;100.00
70304;BME280;57712;48.752;11.348;2023-03-19T03:05:44;97260.50;;;5.95;100.00
70304;BME280;57712;48.752;11.348;2023-03-19T03:08:11;97259.69;;;6.05;100.00
70304;BME280;57712;48.752;11.348;2023-03-19T03:10:37;97267.41;;;6.10;100.00
70304;BME280;57712;48.752;11.348;2023-03-19T03:13:04;97270.88;;;6.14;100.00
70304;BME280;57712;48.752;11.348;2023-03-19T03:15:30;97276.00;;;6.05;100.00
70304;BME280;57712;48.752;11.348;2023-03-19T03:17:57;97284.53;;;6.00;100.00
70304;BME280;57712;48.752;11.348;2023-03-19T03:20:24;97289.19;;;6.03;100.00
70304;BME280;57712;48.752;11.348;2023-03-19T03:22:50;97284.53;;;6.03;100.00
70304;BME280;57712;48.752;11.348;2023-03-19T03:25:17;97279.09;;;6.03;100.00
70304;BME280;57712;48.752;11.348;2023-03-19T03:27:44;97269.75;;;6.08;100.00
70304;BME280;57712;48.752;11.348;2023-03-19T03:30:10;97276.81;;;5.91;100.00
70304;BME280;57712;48.752;11.348;2023-03-19T03:32:37;97265.88;;;6.02;100.00
70304;BME280;57712;48.752;11.348;2023-03-19T03:35:05;97280.63;;;6.08;100.00
70304;BME280;57712;48.752;11.348;2023-03-19T03:37:32;97283.00;;;5.92;100.00
70304;BME280;57712;48.752;11.348;2023-03-19T03:39:59;97277.53;;;6.06;100.00
70304;BME280;57712;48.752;11.348;2023-03-19T03:42:25;97283.72;;;6.10;100.00
70304;BME280;57712;48.752;11.348;2023-03-19T03:44:52;97276.38;;;6.00;100.00
70304;BME280;57712;48.752;11.348;2023-03-19T03:47:19;97282.97;;;6.06;100.00
70304;BME280;57712;48.752;11.348;2023-03-19T03:49:45;97276.75;;;6.09;100.00
70304;BME280;57712;48.752;11.348;2023-03-19T03:52:12;97289.97;;;6.07;100.00
70304;BME280;57712;48.752;11.348;2023-03-19T03:54:38;97279.09;;;6.07;100.00
70304;BME280;57712;48.752;11.348;2023-03-19T03:57:05;97283.75;;;6.03;100.00
70304;BME280;57712;48.752;11.348;2023-03-19T03:59:31;97285.72;;;5.99;100.00
70304;BME280;57712;48.752;11.348;2023-03-19T04:01:58;97284.53;;;6.07;100.00
70304;BME280;57712;48.752;11.348;2023-03-19T04:04:26;97286.44;;;6.14;100.00
70304;BME280;57712;48.752;11.348;2023-03-19T04:06:52;97271.69;;;6.11;100.00
70304;BME280;57712;48.752;11.348;2023-03-19T04:09:19;97279.44;;;6.16;100.00
70304;BME280;57712;48.752;11.348;2023-03-19T04:11:46;97279.03;;;6.14;100.00
70304;BME280;57712;48.752;11.348;2023-03-19T04:14:15;97285.69;;;6.06;100.00
70304;BME280;57712;48.752;11.348;2023-03-19T04:16:42;97286.13;;;5.97;100.00
70304;BME280;57712;48.752;11.348;2023-03-19T04:19:09;97289.94;;;6.11;100.00
70304;BME280;57712;48.752;11.348;2023-03-19T04:21:36;97290.72;;;6.11;100.00
70304;BME280;57712;48.752;11.348;2023-03-19T04:24:03;97289.94;;;6.14;100.00
70304;BME280;57712;48.752;11.348;2023-03-19T04:26:29;97301.63;;;6.07;100.00
70304;BME280;57712;48.752;11.348;2023-03-19T04:28:56;97298.50;;;6.02;100.00
70304;BME280;57712;48.752;11.348;2023-03-19T04:31:23;97300.47;;;6.01;100.00
70304;BME280;57712;48.752;11.348;2023-03-19T04:33:49;97302.41;;;6.01;100.00
70304;BME280;57712;48.752;11.348;2023-03-19T04:36:16;97301.56;;;6.15;100.00
70304;BME280;57712;48.752;11.348;2023-03-19T04:38:43;97297.72;;;6.12;100.00
70304;BME280;57712;48.752;11.348;2023-03-19T04:41:10;97303.50;;;6.21;100.00
70304;BME280;57712;48.752;11.348;2023-03-19T04:43:36;97305.44;;;6.24;100.00
70304;BME280;57712;48.752;11.348;2023-03-19T04:46:03;97301.56;;;6.25;100.00
70304;BME280;57712;48.752;11.348;2023-03-19T04:48:30;97307.78;;;6.26;100.00
70304;BME280;57712;48.752;11.348;2023-03-19T04:50:57;97310.91;;;6.14;100.00
70304;BME280;57712;48.752;11.348;2023-03-19T04:53:23;97314.81;;;6.09;100.00
70304;BME280;57712;48.752;11.348;2023-03-19T04:55:51;97329.63;;;5.97;100.00
70304;BME280;57712;48.752;11.348;2023-03-19T04:58:17;97342.81;;;5.88;100.00
70304;BME280;57712;48.752;11.348;2023-03-19T05:00:44;97355.25;;;5.93;100.00
70304;BME280;57712;48.752;11.348;2023-03-19T05:03:16;97345.91;;;5.94;100.00
70304;BME280;57712;48.752;11.348;2023-03-19T05:05:42;97345.91;;;6.08;100.00
70304;BME280;57712;48.752;11.348;2023-03-19T05:08:09;97345.09;;;6.11;100.00
70304;BME280;57712;48.752;11.348;2023-03-19T05:10:36;97332.63;;;6.24;100.00
70304;BME280;57712;48.752;11.348;2023-03-19T05:13:03;97337.25;;;6.38;100.00
70304;BME280;57712;48.752;11.348;2023-03-19T05:15:29;97341.19;;;6.26;100.00
70304;BME280;57712;48.752;11.348;2023-03-19T05:17:56;97348.13;;;6.42;100.00
70304;BME280;57712;48.752;11.348;2023-03-19T05:20:23;97349.31;;;6.33;100.00
70304;BME280;57712;48.752;11.348;2023-03-19T05:22:53;97345.78;;;6.47;100.00
70304;BME280;57712;48.752;11.348;2023-03-19T05:25:20;97338.72;;;6.57;100.00
70304;BME280;57712;48.752;11.348;2023-03-19T05:27:46;97355.78;;;6.64;100.00
70304;BME280;57712;48.752;11.348;2023-03-19T05:30:13;97367.50;;;6.51;100.00
70304;BME280;57712;48.752;11.348;2023-03-19T05:32:40;97360.84;;;6.62;100.00
70304;BME280;57712;48.752;11.348;2023-03-19T05:35:07;97351.13;;;6.65;100.00
70304;BME280;57712;48.752;11.348;2023-03-19T05:37:33;97374.13;;;6.57;100.00
70304;BME280;57712;48.752;11.348;2023-03-19T05:40:00;97369.03;;;6.62;100.00
70304;BME280;57712;48.752;11.348;2023-03-19T05:42:27;97377.56;;;6.68;100.00
70304;BME280;57712;48.752;11.348;2023-03-19T05:44:53;97382.97;;;6.72;100.00
70304;BME280;57712;48.752;11.348;2023-03-19T05:47:20;97376.75;;;6.78;100.00
70304;BME280;57712;48.752;11.348;2023-03-19T05:49:46;97384.50;;;6.76;100.00
70304;BME280;57712;48.752;11.348;2023-03-19T05:52:13;97387.97;;;6.84;100.00
70304;BME280;57712;48.752;11.348;2023-03-19T05:54:40;97389.19;;;6.79;100.00
70304;BME280;57712;48.752;11.348;2023-03-19T05:57:06;97390.78;;;6.70;100.00
70304;BME280;57712;48.752;11.348;2023-03-19T05:59:33;97404.88;;;6.32;100.00
70304;BME280;57712;48.752;11.348;2023-03-19T06:02:00;97401.38;;;6.35;100.00
70304;BME280;57712;48.752;11.348;2023-03-19T06:04:27;97401.31;;;6.57;100.00
70304;BME280;57712;48.752;11.348;2023-03-19T06:06:53;97408.28;;;6.65;100.00
70304;BME280;57712;48.752;11.348;2023-03-19T06:09:22;97413.81;;;6.33;100.00
70304;BME280;57712;48.752;11.348;2023-03-19T06:11:49;97409.91;;;6.41;100.00
70304;BME280;57712;48.752;11.348;2023-03-19T06:14:15;97420.00;;;6.48;100.00
70304;BME280;57712;48.752;11.348;2023-03-19T06:16:42;97439.06;;;6.48;100.00
70304;BME280;57712;48.752;11.348;2023-03-19T06:19:08;97433.59;;;6.58;100.00
70304;BME280;57712;48.752;11.348;2023-03-19T06:21:35;97441.31;;;6.63;100.00
70304;BME280;57712;48.752;11.348;2023-03-19T06:24:02;97444.38;;;6.76;100.00
70304;BME280;57712;48.752;11.348;2023-03-19T06:26:28;97445.06;;;6.98;100.00
70304;BME280;57712;48.752;11.348;2023-03-19T06:28:54;97453.59;;;7.07;100.00
70304;BME280;57712;48.752;11.348;2023-03-19T06:31:21;97442.69;;;7.11;100.00
70304;BME280;57712;48.752;11.348;2023-03-19T06:33:48;97450.47;;;7.12;100.00
70304;BME280;57712;48.752;11.348;2023-03-19T06:36:15;97453.16;;;7.16;100.00
70304;BME280;57712;48.752;11.348;2023-03-19T06:38:42;97456.22;;;7.29;100.00
70304;BME280;57712;48.752;11.348;2023-03-19T06:41:09;97461.28;;;7.30;100.00
70304;BME280;57712;48.752;11.348;2023-03-19T06:43:36;97471.78;;;7.28;100.00
70304;BME280;57712;48.752;11.348;2023-03-19T06:46:03;97471.38;;;7.33;100.00
70304;BME280;57712;48.752;11.348;2023-03-19T06:48:30;97475.25;;;7.36;100.00
70304;BME280;57712;48.752;11.348;2023-03-19T06:50:56;97471.75;;;7.35;100.00
70304;BME280;57712;48.752;11.348;2023-03-19T06:53:23;97488.47;;;7.41;100.00
70304;BME280;57712;48.752;11.348;2023-03-19T06:55:50;97479.91;;;7.42;100.00
70304;BME280;57712;48.752;11.348;2023-03-19T06:58:16;97488.41;;;7.51;100.00
70304;BME280;57712;48.752;11.348;2023-03-19T07:00:43;97485.22;;;7.64;100.00
70304;BME280;57712;48.752;11.348;2023-03-19T07:03:09;97491.44;;;7.64;100.00
70304;BME280;57712;48.752;11.348;2023-03-19T07:05:36;97497.66;;;7.65;100.00
70304;BME280;57712;48.752;11.348;2023-03-19T07:08:03;97501.91;;;7.69;100.00
70304;BME280;57712;48.752;11.348;2023-03-19T07:10:29;97511.66;;;7.67;100.00
70304;BME280;57712;48.752;11.348;2023-03-19T07:12:56;97516.28;;;7.77;100.00
70304;BME280;57712;48.752;11.348;2023-03-19T07:15:23;97513.16;;;7.78;100.00
70304;BME280;57712;48.752;11.348;2023-03-19T07:17:49;97507.69;;;7.78;100.00
70304;BME280;57712;48.752;11.348;2023-03-19T07:20:16;97519.75;;;7.81;100.00
70304;BME280;57712;48.752;11.348;2023-03-19T07:22:42;97517.81;;;7.81;100.00
70304;BME280;57712;48.752;11.348;2023-03-19T07:25:09;97516.97;;;7.88;100.00
70304;BME280;57712;48.752;11.348;2023-03-19T07:27:35;97516.19;;;7.91;100.00
70304;BME280;57712;48.752;11.348;2023-03-19T07:30:02;97519.66;;;7.95;100.00
70304;BME280;57712;48.752;11.348;2023-03-19T07:32:29;97521.63;;;7.95;100.00
70304;BME280;57712;48.752;11.348;2023-03-19T07:34:55;97515.00;;;7.96;100.00
70304;BME280;57712;48.752;11.348;2023-03-19T07:37:22;97518.31;;;8.18;100.00
70304;BME280;57712;48.752;11.348;2023-03-19T07:39:48;97524.91;;;8.24;100.00
70304;BME280;57712;48.752;11.348;2023-03-19T07:42:15;97525.25;;;8.29;100.00
70304;BME280;57712;48.752;11.348;2023-03-19T07:44:41;97531.47;;;8.37;100.00
70304;BME280;57712;48.752;11.348;2023-03-19T07:47:08;97536.06;;;8.44;100.00
70304;BME280;57712;48.752;11.348;2023-03-19T07:49:47;97531.31;;;8.51;100.00
70304;BME280;57712;48.752;11.348;2023-03-19T07:52:14;97543.78;;;8.52;100.00
70304;BME280;57712;48.752;11.348;2023-03-19T07:54:41;97534.81;;;8.55;100.00
70304;BME280;57712;48.752;11.348;2023-03-19T07:57:08;97533.22;;;8.58;100.00
70304;BME280;57712;48.752;11.348;2023-03-19T07:59:34;97534.22;;;8.75;100.00
70304;BME280;57712;48.752;11.348;2023-03-19T08:02:02;97534.91;;;8.82;100.00
70304;BME280;57712;48.752;11.348;2023-03-19T08:04:32;97544.25;;;8.85;100.00
70304;BME280;57712;48.752;11.348;2023-03-19T08:06:58;97543.00;;;8.93;100.00
70304;BME280;57712;48.752;11.348;2023-03-19T08:09:25;97544.13;;;8.99;100.00
70304;BME280;57712;48.752;11.348;2023-03-19T08:11:52;97543.34;;;8.99;100.00
70304;BME280;57712;48.752;11.348;2023-03-19T08:14:19;97536.41;;;8.90;100.00
70304;BME280;57712;48.752;11.348;2023-03-19T08:16:48;97539.53;;;8.89;100.00
70304;BME280;57712;48.752;11.348;2023-03-19T08:19:14;97550.44;;;8.92;100.00
70304;BME280;57712;48.752;11.348;2023-03-19T08:21:41;97547.28;;;8.94;100.00
70304;BME280;57712;48.752;11.348;2023-03-19T08:24:08;97550.34;;;9.00;100.00
70304;BME280;57712;48.752;11.348;2023-03-19T08:26:34;97552.59;;;9.08;100.00
70304;BME280;57712;48.752;11.348;2023-03-19T08:29:01;97555.72;;;9.10;100.00
70304;BME280;57712;48.752;11.348;2023-03-19T08:31:29;97558.97;;;8.98;100.00
70304;BME280;57712;48.752;11.348;2023-03-19T08:33:56;97556.53;;;9.07;100.00
70304;BME280;57712;48.752;11.348;2023-03-19T08:36:25;97558.06;;;9.08;100.00
70304;BME280;57712;48.752;11.348;2023-03-19T08:38:52;97551.19;;;8.93;100.00
70304;BME280;57712;48.752;11.348;2023-03-19T08:41:20;97556.00;;;8.82;100.00
70304;BME280;57712;48.752;11.348;2023-03-19T08:43:49;97549.88;;;8.71;100.00
70304;BME280;57712;48.752;11.348;2023-03-19T08:49:47;97549.13;;;8.66;100.00
70304;BME280;57712;48.752;11.348;2023-03-19T08:52:13;97562.03;;;8.62;100.00
70304;BME280;57712;48.752;11.348;2023-03-19T08:54:40;97586.53;;;8.70;100.00
70304;BME280;57712;48.752;11.348;2023-03-19T08:57:06;97585.72;;;8.73;100.00
70304;BME280;57712;48.752;11.348;2023-03-19T08:59:33;97584.06;;;8.86;100.00
70304;BME280;57712;48.752;11.348;2023-03-19T09:02:02;97587.06;;;8.95;100.00
70304;BME280;57712;48.752;11.348;2023-03-19T09:04:29;97578.59;;;8.86;100.00
70304;BME280;57712;48.752;11.348;2023-03-19T09:06:56;97583.88;;;9.04;100.00
70304;BME280;57712;48.752;11.348;2023-03-19T09:09:24;97585.69;;;9.17;100.00
70304;BME280;57712;48.752;11.348;2023-03-19T09:11:50;97576.69;;;9.20;100.00
70304;BME280;57712;48.752;11.348;2023-03-19T09:14:17;97584.50;;;9.18;100.00
70304;BME280;57712;48.752;11.348;2023-03-19T09:16:45;97588.38;;;9.21;100.00
70304;BME280;57712;48.752;11.348;2023-03-19T09:19:12;97589.09;;;9.25;100.00
70304;BME280;57712;48.752;11.348;2023-03-19T09:21:42;97588.38;;;9.21;100.00
70304;BME280;57712;48.752;11.348;2023-03-19T09:24:10;97589.88;;;9.25;100.00
70304;BME280;57712;48.752;11.348;2023-03-19T09:26:36;97603.13;;;9.27;100.00
70304;BME280;57712;48.752;11.348;2023-03-19T09:29:03;97597.53;;;9.38;100.00
70304;BME280;57712;48.752;11.348;2023-03-19T09:31:30;97599.56;;;9.34;100.00
70304;BME280;57712;48.752;11.348;2023-03-19T09:33:57;97604.53;;;9.42;100.00
70304;BME280;57712;48.752;11.348;2023-03-19T09:36:24;97613.88;;;9.45;100.00
70304;BME280;57712;48.752;11.348;2023-03-19T09:38:51;97603.75;;;9.42;100.00
70304;BME280;57712;48.752;11.348;2023-03-19T09:44:36;97607.91;;;9.53;100.00
70304;BME280;57712;48.752;11.348;2023-03-19T09:47:25;97610.09;;;9.35;100.00
70304;BME280;57712;48.752;11.348;2023-03-19T09:49:55;97609.97;;;9.46;100.00
70304;BME280;57712;48.752;11.348;2023-03-19T09:52:48;97610.59;;;9.57;100.00
70304;BME280;57712;48.752;11.348;2023-03-19T09:57:53;97612.13;;;9.62;100.00
70304;BME280;57712;48.752;11.348;2023-03-19T10:00:29;97611.25;;;9.68;100.00
70304;BME280;57712;48.752;11.348;2023-03-19T10:03:31;97607.88;;;9.88;100.00
70304;BME280;57712;48.752;11.348;2023-03-19T10:17:20;97595.59;;;11.00;100.00
70304;BME280;57712;48.752;11.348;2023-03-19T10:19:57;97599.13;;;11.01;100.00
70304;BME280;57712;48.752;11.348;2023-03-19T10:22:35;97579.75;;;11.31;100.00
70304;BME280;57712;48.752;11.348;2023-03-19T10:25:05;97582.41;;;11.54;100.00
70304;BME280;57712;48.752;11.348;2023-03-19T10:27:36;97577.34;;;11.33;100.00
70304;BME280;57712;48.752;11.348;2023-03-19T10:30:14;97575.53;;;11.26;100.00
70304;BME280;57712;48.752;11.348;2023-03-19T10:32:43;97575.47;;;11.50;100.00
70304;BME280;57712;48.752;11.348;2023-03-19T10:35:21;97585.22;;;11.71;100.00
70304;BME280;57712;48.752;11.348;2023-03-19T10:37:49;97572.03;;;12.18;100.00
70304;BME280;57712;48.752;11.348;2023-03-19T10:40:21;97580.22;;;12.54;100.00
70304;BME280;57712;48.752;11.348;2023-03-19T10:43:00;97569.59;;;12.73;100.00
70304;BME280;57712;48.752;11.348;2023-03-19T10:45:34;97574.53;;;12.29;100.00
70304;BME280;57712;48.752;11.348;2023-03-19T10:48:05;97577.28;;;12.12;100.00
70304;BME280;57712;48.752;11.348;2023-03-19T10:55:45;97571.78;;;12.29;100.00
70304;BME280;57712;48.752;11.348;2023-03-19T10:58:22;97573.09;;;12.73;100.00
70304;BME280;57712;48.752;11.348;2023-03-19T11:01:16;97571.59;;;13.59;100.00
70304;BME280;57712;48.752;11.348;2023-03-19T11:03:54;97566.91;;;13.43;100.00
70304;BME280;57712;48.752;11.348;2023-03-19T11:06:26;97558.75;;;12.49;100.00
70304;BME280;57712;48.752;11.348;2023-03-19T11:09:25;97561.78;;;12.55;100.00
70304;BME280;57712;48.752;11.348;2023-03-19T11:11:58;97560.59;;;13.59;100.00
70304;BME280;57712;48.752;11.348;2023-03-19T11:14:35;97560.91;;;13.61;100.00
70304;BME280;57712;48.752;11.348;2023-03-19T11:17:44;97550.41;;;13.98;100.00
70304;BME280;57712;48.752;11.348;2023-03-19T11:22:41;97547.53;;;13.89;100.00
70304;BME280;57712;48.752;11.348;2023-03-19T11:26:07;97536.94;;;13.74;100.00
70304;BME280;57712;48.752;11.348;2023-03-19T11:28:14;97538.28;;;14.08;100.00
70304;BME280;57712;48.752;11.348;2023-03-19T11:33:50;97521.72;;;13.57;100.00
70304;BME280;57712;48.752;11.348;2023-03-19T11:39:23;97524.91;;;13.55;100.00
70304;BME280;57712;48.752;11.348;2023-03-19T11:45:16;97527.81;;;12.78;100.00
70304;BME280;57712;48.752;11.348;2023-03-19T11:51:05;97528.00;;;13.70;100.00
70304;BME280;57712;48.752;11.348;2023-03-19T11:56:42;97519.03;;;13.12;100.00
70304;BME280;57712;48.752;11.348;2023-03-19T12:05:08;97501.03;;;13.65;100.00
70304;BME280;57712;48.752;11.348;2023-03-19T12:27:35;97489.22;;;13.65;100.00
70304;BME280;57712;48.752;11.348;2023-03-19T12:30:29;97486.97;;;13.76;100.00
70304;BME280;57712;48.752;11.348;2023-03-19T12:35:32;97479.47;;;14.62;100.00
70304;BME280;57712;48.752;11.348;2023-03-19T12:38:09;97473.53;;;14.38;100.00
70304;BME280;57712;48.752;11.348;2023-03-19T12:40:50;97468.53;;;15.15;100.00
70304;BME280;57712;48.752;11.348;2023-03-19T12:43:24;97470.50;;;15.36;100.00
70304;BME280;57712;48.752;11.348;2023-03-19T12:46:16;97469.53;;;16.32;100.00
70304;BME280;57712;48.752;11.348;2023-03-19T12:48:50;97460.00;;;15.75;100.00
70304;BME280;57712;48.752;11.348;2023-03-19T12:51:26;97455.00;;;15.61;100.00
70304;BME280;57712;48.752;11.348;2023-03-19T12:53:58;97456.94;;;15.82;100.00
70304;BME280;57712;48.752;11.348;2023-03-19T13:02:21;97449.22;;;17.36;100.00
70304;BME280;57712;48.752;11.348;2023-03-19T13:05:06;97441.13;;;17.05;100.00
70304;BME280;57712;48.752;11.348;2023-03-19T13:07:50;97442.38;;;16.49;100.00
70304;BME280;57712;48.752;11.348;2023-03-19T13:10:20;97445.91;;;16.50;100.00
70304;BME280;57712;48.752;11.348;2023-03-19T13:12:49;97447.06;;;16.21;100.00
70304;BME280;57712;48.752;11.348;2023-03-19T13:15:28;97448.56;;;16.71;100.00
70304;BME280;57712;48.752;11.348;2023-03-19T13:18:29;97453.75;;;16.88;100.00
70304;BME280;57712;48.752;11.348;2023-03-19T13:21:16;97452.22;;;16.59;100.00
70304;BME280;57712;48.752;11.348;2023-03-19T13:23:49;97455.31;;;16.70;100.00
70304;BME280;57712;48.752;11.348;2023-03-19T13:26:16;97452.50;;;17.16;100.00
70304;BME280;57712;48.752;11.348;2023-03-19T13:29:16;97453.19;;;15.14;100.00
70304;BME280;57712;48.752;11.348;2023-03-19T13:31:44;97446.19;;;14.78;100.00
70304;BME280;57712;48.752;11.348;2023-03-19T13:34:25;97442.63;;;14.90;100.00
70304;BME280;57712;48.752;11.348;2023-03-19T13:36:53;97447.81;;;15.41;100.00
70304;BME280;57712;48.752;11.348;2023-03-19T13:39:24;97450.56;;;15.32;100.00
70304;BME280;57712;48.752;11.348;2023-03-19T13:44:52;97439.59;;;15.50;100.00
70304;BME280;57712;48.752;11.348;2023-03-19T13:55:52;97437.63;;;15.91;100.00
70304;BME280;57712;48.752;11.348;2023-03-19T13:58:21;97433.44;;;16.45;100.00
70304;BME280;57712;48.752;11.348;2023-03-19T14:01:10;97423.84;;;16.00;100.00
70304;BME280;57712;48.752;11.348;2023-03-19T14:03:57;97430.91;;;16.01;100.00
70304;BME280;57712;48.752;11.348;2023-03-19T14:06:46;97429.56;;;15.66;100.00
70304;BME280;57712;48.752;11.348;2023-03-19T14:17:25;97410.13;;;15.47;100.00
70304;BME280;57712;48.752;11.348;2023-03-19T14:19:53;97406.19;;;15.26;100.00
70304;BME280;57712;48.752;11.348;2023-03-19T14:22:34;97411.16;;;15.72;100.00
70304;BME280;57712;48.752;11.348;2023-03-19T14:25:17;97406.75;;;15.43;100.00
70304;BME280;57712;48.752;11.348;2023-03-19T14:27:56;97406.88;;;15.09;100.00
70304;BME280;57712;48.752;11.348;2023-03-19T14:30:36;97410.75;;;15.20;100.00
70304;BME280;57712;48.752;11.348;2023-03-19T14:33:06;97401.75;;;15.29;100.00
70304;BME280;57712;48.752;11.348;2023-03-19T14:35:44;97400.88;;;15.10;100.00
70304;BME280;57712;48.752;11.348;2023-03-19T14:38:39;97401.31;;;15.30;100.00
70304;BME280;57712;48.752;11.348;2023-03-19T14:41:13;97398.75;;;15.36;100.00